Eagle — WBP2187 — position and weather

sailwx.info

Track history (hours):
 
Tides and Currents Weather Stations Pressure Air Temp Water Temp Dewpoint Dewpoint Depression Visibility Wind Speed Wind Dir Waves Ship Positions

Eagle

More information available from US FCC via Universal Licensing System and Coast Guard Vessel Documentation Center.

Last reported at 2014-Jul-24 22:20 UTC. Time now 2014-Jul-24 22:59 UTC.
Position N 47°15' W 122°23'.

Length 32 m; draft 4 m.

Type: Towing. MMSI: 366978690.

Date/timePositionNaut miles runAvg speedWind from/ knotsBaromVisibWave heightAir tempDewpointWater temp
2014-Jul-24 22:20N 47°15' W 122°23'0 0.0
2014-Jul-24 21:26N 47°15' W 122°23'0 0.0
2014-Jul-24 20:33N 47°15' W 122°23'0 0.0
2014-Jul-24 19:21N 47°15' W 122°23'0 0.0
2014-Jul-24 17:26N 47°15' W 122°23'0 0.0
2014-Jul-24 15:33N 47°15' W 122°23'0 0.0
2014-Jul-24 14:33N 47°15' W 122°23'0 0.4
2014-Jul-24 13:32N 47°16' W 122°23'0 0.0
2014-Jul-24 12:22N 47°16' W 122°23'0 0.0
2014-Jul-24 11:33N 47°16' W 122°23'0 0.0
2014-Jul-24 10:32N 47°16' W 122°23'0 0.0
2014-Jul-24 09:33N 47°16' W 122°23'0 0.0
2014-Jul-24 08:33N 47°16' W 122°23'0 0.0
2014-Jul-24 07:33N 47°16' W 122°23'0 0.0
2014-Jul-24 06:33N 47°16' W 122°23'0 0.0
2014-Jul-24 05:33N 47°16' W 122°23'0 0.0
2014-Jul-24 04:33N 47°16' W 122°23'0 0.0
2014-Jul-23 22:03N 47°16' W 122°23'0 0.0
2014-Jul-23 21:31N 47°16' W 122°23'0 0.0
2014-Jul-23 20:33N 47°16' W 122°23'0 0.0
2014-Jul-23 19:33N 47°16' W 122°23'0 0.3
2014-Jul-23 18:33N 47°16' W 122°23'1 1.1
2014-Jul-23 17:33N 47°16' W 122°25'0 0.0
2014-Jul-23 16:33N 47°16' W 122°25'0 0.0
2014-Jul-23 15:33N 47°16' W 122°25'0 0.0
2014-Jul-23 14:34N 47°16' W 122°25'0 0.1
2014-Jul-23 13:33N 47°16' W 122°25'1 1.0
2014-Jul-23 12:32N 47°16' W 122°24'1 0.5
2014-Jul-23 11:33N 47°16' W 122°23'0 0.0
2014-Jul-23 10:33N 47°16' W 122°23'0 0.0
2014-Jul-23 09:34N 47°16' W 122°23'0 0.0
2014-Jul-23 08:34N 47°16' W 122°23'0 0.0
2014-Jul-23 07:34N 47°16' W 122°23'0 0.0
2014-Jul-23 06:33N 47°16' W 122°23'0 0.0
2014-Jul-23 05:25N 47°16' W 122°23'0 0.0
2014-Jul-23 04:33N 47°16' W 122°23'3 2.8
2014-Jul-23 03:33N 47°17' W 122°27'0 0.1
2014-Jul-23 02:34N 47°17' W 122°27'0 0.0
2014-Jul-23 01:33N 47°17' W 122°27'0 0.1
2014-Jul-23 00:34N 47°17' W 122°27'0 0.1
2014-Jul-22 23:33N 47°17' W 122°27'0 0.1
2014-Jul-22 22:33N 47°17' W 122°27'2 1.6
2014-Jul-22 21:33N 47°18' W 122°28'4 6.5
2014-Jul-22 20:55N 47°22' W 122°25'2 7.0
2014-Jul-22 20:33N 47°23' W 122°22'2 7.4
2014-Jul-22 20:15N 47°25' W 122°24'5 7.5
2014-Jul-22 19:34N 47°30' W 122°26'1 7.3
2014-Jul-22 19:24N 47°31' W 122°27'6 7.7
2014-Jul-22 18:34N 47°37' W 122°28'0 7.3
2014-Jul-22 18:30N 47°38' W 122°28'7 7.5
2014-Jul-22 17:33N 47°45' W 122°26'1 7.1
2014-Jul-22 17:29N 47°45' W 122°26'2 2.3
2014-Jul-22 16:33N 47°47' W 122°24'0 0.0
2014-Jul-22 16:29N 47°47' W 122°24'0 0.0
2014-Jul-22 15:33N 47°47' W 122°24'0 0.0
2014-Jul-22 15:24N 47°47' W 122°24'0 0.0
2014-Jul-22 14:34N 47°47' W 122°24'0 0.0
2014-Jul-22 14:33N 47°47' W 122°24'0 0.0
2014-Jul-22 13:34N 47°47' W 122°24'0 0.0
2014-Jul-22 13:33N 47°47' W 122°24'0 0.0
2014-Jul-22 12:34N 47°47' W 122°24'0 0.0
2014-Jul-22 12:33N 47°47' W 122°24'0 0.0
2014-Jul-22 11:34N 47°47' W 122°24'0 0.0
2014-Jul-22 11:33N 47°47' W 122°24'0 0.0
2014-Jul-22 10:34N 47°47' W 122°24'0 0.3
2014-Jul-22 10:32N 47°47' W 122°24'0 0.0
2014-Jul-22 09:33N 47°47' W 122°24'0 0.2
2014-Jul-22 09:32N 47°47' W 122°24'0 0.0
2014-Jul-22 08:33N 47°47' W 122°24'0 0.2
2014-Jul-22 08:32N 47°47' W 122°24'0 0.0
2014-Jul-22 07:33N 47°47' W 122°24'0 0.0
2014-Jul-22 07:31N 47°47' W 122°24'0 0.0
2014-Jul-22 06:34N 47°47' W 122°24'0 0.0
2014-Jul-22 05:33N 47°47' W 122°24'0 0.0
2014-Jul-22 05:29N 47°47' W 122°24'0 0.0
2014-Jul-22 04:34N 47°47' W 122°24'0 0.0
2014-Jul-22 04:34N 47°47' W 122°24'0 0.0
2014-Jul-22 03:34N 47°47' W 122°24'0 0.0
2014-Jul-22 03:33N 47°47' W 122°24'0 0.0
2014-Jul-22 02:33N 47°47' W 122°24'0 0.0
2014-Jul-22 02:18N 47°47' W 122°24'0 0.2
2014-Jul-22 01:34N 47°47' W 122°24'0 2.2
2014-Jul-22 01:27N 47°47' W 122°24'5 5.5
2014-Jul-22 00:33N 47°52' W 122°26'0 6.8
2014-Jul-22 00:32N 47°52' W 122°27'6 6.6
2014-Jul-21 23:34N 47°57' W 122°33'22 6.9
2014-Jul-21 20:25N 48°16' W 122°48'1 7.3
2014-Jul-21 20:17N 48°17' W 122°48'5 7.3
2014-Jul-21 19:33N 48°22' W 122°46'6 6.3
2014-Jul-21 18:33N 48°28' W 122°44'5 4.6
2014-Jul-21 17:34N 48°31' W 122°39'3 3.1
2014-Jul-21 16:33N 48°30' W 122°34'0 0.0
2014-Jul-21 15:34N 48°30' W 122°34'0 0.0
2014-Jul-21 14:33N 48°30' W 122°34'0 0.0
2014-Jul-21 13:33N 48°30' W 122°34'0 0.0
2014-Jul-21 12:34N 48°30' W 122°34'0 0.0
2014-Jul-21 11:34N 48°30' W 122°34'0 0.0
2014-Jul-21 10:34N 48°30' W 122°34'0 0.0
2014-Jul-21 09:33N 48°30' W 122°34'0 0.0
2014-Jul-21 08:33N 48°30' W 122°34'0 0.0
2014-Jul-21 07:33N 48°30' W 122°34'0 0.0
2014-Jul-21 06:33N 48°30' W 122°34'0 0.0
2014-Jul-21 05:33N 48°30' W 122°34'0 0.0
2014-Jul-21 04:33N 48°30' W 122°34'0 0.0
2014-Jul-21 03:33N 48°30' W 122°34'0 0.0
2014-Jul-21 02:34N 48°30' W 122°34'0 0.0
2014-Jul-21 01:34N 48°30' W 122°34'0 0.0
2014-Jul-21 00:33N 48°30' W 122°34'0 0.0
2014-Jul-20 23:33N 48°30' W 122°34'0 0.0
2014-Jul-20 22:34N 48°30' W 122°34'0 0.0
2014-Jul-20 21:33N 48°30' W 122°34'0 0.0
2014-Jul-20 20:33N 48°30' W 122°34'0 0.2
2014-Jul-20 19:33N 48°31' W 122°34'6 6.4
2014-Jul-20 18:33N 48°29' W 122°44'9 9.1
2014-Jul-20 17:33N 48°20' W 122°45'14 6.6
2014-Jul-20 15:30N 48°07' W 122°39'8 8.7
2014-Jul-20 14:32N 47°59' W 122°35'8 8.6
2014-Jul-20 13:33N 47°52' W 122°28'4 9.2
2014-Jul-20 13:06N 47°48' W 122°26'5 9.4
2014-Jul-20 12:34N 47°43' W 122°26'0 8.7
2014-Jul-20 12:31N 47°42' W 122°26'9 9.5
2014-Jul-20 11:33N 47°33' W 122°26'0 8.7
2014-Jul-20 11:31N 47°33' W 122°26'9 9.5
2014-Jul-20 10:33N 47°24' W 122°21'8 7.7
2014-Jul-20 09:33N 47°18' W 122°27'3 3.0
2014-Jul-20 08:33N 47°16' W 122°23'0 0.0
2014-Jul-20 07:33N 47°16' W 122°23'0 0.0
2014-Jul-20 06:32N 47°16' W 122°23'0 0.0
2014-Jul-20 05:31N 47°16' W 122°23'0 0.0
2014-Jul-20 04:33N 47°16' W 122°23'0 0.0
2014-Jul-20 03:32N 47°16' W 122°23'0 0.0
2014-Jul-20 02:33N 47°16' W 122°23'4 4.3
2014-Jul-20 01:34N 47°19' W 122°28'7 6.9
2014-Jul-20 00:34N 47°25' W 122°24'4 8.0
2014-Jul-20 00:02N 47°29' W 122°26'4 8.1
2014-Jul-19 23:33N 47°33' W 122°27'1 7.8
2014-Jul-19 23:22N 47°34' W 122°28'7 8.1
2014-Jul-19 22:34N 47°41' W 122°28'0 7.1
2014-Jul-19 22:32N 47°41' W 122°28'6 6.6
2014-Jul-19 21:33N 47°47' W 122°24'0 1.6
2014-Jul-19 21:32N 47°47' W 122°24'0 0.2
2014-Jul-19 20:33N 47°47' W 122°24'0 0.0
2014-Jul-19 20:31N 47°47' W 122°24'0 0.0
2014-Jul-19 19:33N 47°47' W 122°24'0 0.0
2014-Jul-19 19:31N 47°47' W 122°24'0 0.0
2014-Jul-19 18:33N 47°47' W 122°24'0 0.0
2014-Jul-19 18:31N 47°47' W 122°24'0 0.0
2014-Jul-19 17:33N 47°47' W 122°24'0 0.0
2014-Jul-19 17:32N 47°47' W 122°24'0 0.0
2014-Jul-19 16:33N 47°47' W 122°24'0 0.0
2014-Jul-19 16:31N 47°47' W 122°24'0 0.0
2014-Jul-19 15:33N 47°47' W 122°24'0 0.0
2014-Jul-19 15:31N 47°47' W 122°24'0 0.0
2014-Jul-19 14:34N 47°47' W 122°24'0 0.0
2014-Jul-19 14:31N 47°47' W 122°24'0 0.1
2014-Jul-19 13:33N 47°47' W 122°24'0 0.2
2014-Jul-19 13:31N 47°47' W 122°24'0 0.0
2014-Jul-19 12:33N 47°47' W 122°24'0 0.0
2014-Jul-19 12:30N 47°47' W 122°24'0 0.0
2014-Jul-19 11:33N 47°47' W 122°24'0 0.0
2014-Jul-19 11:31N 47°47' W 122°24'0 0.0
2014-Jul-19 10:34N 47°47' W 122°24'0 0.0
2014-Jul-19 10:31N 47°47' W 122°24'0 0.0
2014-Jul-19 09:34N 47°47' W 122°24'0 0.0
2014-Jul-19 09:31N 47°47' W 122°24'0 0.0
2014-Jul-19 08:34N 47°47' W 122°24'0 0.0
2014-Jul-19 08:31N 47°47' W 122°24'0 0.0
2014-Jul-19 07:33N 47°47' W 122°24'0 0.0
2014-Jul-19 07:30N 47°47' W 122°24'0 0.0
2014-Jul-19 06:34N 47°47' W 122°24'0 0.0
2014-Jul-19 06:30N 47°47' W 122°24'0 0.0
2014-Jul-19 05:40N 47°47' W 122°24'0 0.0
2014-Jul-19 05:33N 47°47' W 122°24'0 0.0
2014-Jul-19 04:33N 47°47' W 122°24'0 0.1
2014-Jul-19 04:30N 47°47' W 122°24'0 0.0
2014-Jul-19 03:34N 47°47' W 122°24'0 0.0
2014-Jul-19 03:30N 47°47' W 122°24'0 0.0
2014-Jul-19 02:33N 47°47' W 122°24'0 0.0
2014-Jul-19 02:30N 47°47' W 122°24'0 0.0
2014-Jul-19 01:33N 47°47' W 122°24'0 0.0
2014-Jul-19 01:30N 47°47' W 122°24'0 0.0
2014-Jul-19 00:33N 47°47' W 122°24'0 0.0
2014-Jul-19 00:30N 47°47' W 122°24'0 0.0
2014-Jul-18 23:33N 47°47' W 122°24'0 0.0
2014-Jul-18 23:30N 47°47' W 122°24'0 0.0
2014-Jul-18 22:34N 47°47' W 122°24'0 0.0
2014-Jul-18 22:20N 47°47' W 122°24'0 0.0
2014-Jul-18 21:33N 47°47' W 122°24'0 0.0
2014-Jul-18 21:29N 47°47' W 122°24'0 0.0
2014-Jul-18 20:33N 47°47' W 122°24'0 0.0
2014-Jul-18 20:17N 47°47' W 122°24'1 0.9
2014-Jul-18 19:33N 47°47' W 122°24'0 0.3
2014-Jul-18 19:32N 47°47' W 122°24'6 6.2
2014-Jul-18 18:33N 47°53' W 122°28'1 6.7
2014-Jul-18 18:23N 47°54' W 122°28'6 7.3
2014-Jul-18 17:32N 47°58' W 122°36'10 7.5
2014-Jul-18 16:11N 48°07' W 122°42'6 9.4
2014-Jul-18 15:33N 48°11' W 122°48'8 7.6
2014-Jul-18 14:33N 48°19' W 122°47'8 7.8
2014-Jul-18 13:33N 48°27' W 122°45'7 6.6
2014-Jul-18 12:33N 48°31' W 122°38'3 2.7
2014-Jul-18 11:33N 48°30' W 122°34'0 0.0
2014-Jul-18 10:34N 48°30' W 122°34'0 0.0
2014-Jul-18 09:33N 48°30' W 122°34'0 0.0
2014-Jul-18 08:33N 48°30' W 122°34'0 0.0
2014-Jul-18 07:34N 48°30' W 122°34'0 0.0
2014-Jul-18 06:33N 48°30' W 122°34'0 0.0
2014-Jul-18 05:33N 48°30' W 122°34'0 0.0
2014-Jul-18 04:33N 48°30' W 122°34'0 0.0
2014-Jul-18 03:33N 48°30' W 122°34'0 0.0
2014-Jul-18 02:33N 48°30' W 122°34'0 0.0
2014-Jul-18 01:33N 48°30' W 122°34'0 0.0
2014-Jul-18 00:33N 48°30' W 122°34'0 0.0
2014-Jul-17 23:33N 48°30' W 122°34'0 0.0
2014-Jul-17 22:33N 48°30' W 122°34'0 0.0
2014-Jul-17 21:33N 48°30' W 122°34'0 0.0
2014-Jul-17 20:33N 48°30' W 122°34'0 0.0
2014-Jul-17 19:34N 48°30' W 122°34'0 0.0
2014-Jul-17 18:33N 48°30' W 122°34'0 0.0
2014-Jul-17 17:33N 48°30' W 122°34'0 0.0
2014-Jul-17 16:33N 48°30' W 122°34'0 0.0
2014-Jul-17 15:34N 48°30' W 122°34'0 0.0
2014-Jul-17 14:33N 48°30' W 122°34'0 0.0
2014-Jul-17 13:33N 48°30' W 122°34'0 0.0
2014-Jul-17 12:34N 48°30' W 122°34'0 0.0
2014-Jul-17 11:33N 48°30' W 122°34'0 0.0
2014-Jul-17 10:34N 48°30' W 122°34'0 0.0
2014-Jul-17 09:34N 48°30' W 122°34'0 0.0
2014-Jul-17 08:33N 48°30' W 122°34'0 0.0
2014-Jul-17 07:33N 48°30' W 122°34'0 0.0
2014-Jul-17 06:34N 48°30' W 122°34'0 0.0
2014-Jul-17 05:33N 48°30' W 122°34'0 0.0
2014-Jul-17 04:33N 48°30' W 122°34'0 0.0
2014-Jul-17 03:33N 48°30' W 122°34'0 0.0
2014-Jul-17 02:33N 48°30' W 122°34'0 0.0
2014-Jul-17 01:34N 48°30' W 122°34'1 0.7
2014-Jul-17 00:33N 48°31' W 122°35'6 5.6
2014-Jul-16 23:33N 48°30' W 122°43'8 8.3
2014-Jul-16 22:33N 48°22' W 122°45'10 8.3
2014-Jul-16 21:22N 48°12' W 122°47'1011.0
2014-Jul-16 20:25N 48°04' W 122°38'1011.5
2014-Jul-16 19:33N 47°56' W 122°29'910.3
2014-Jul-16 18:43N 47°47' W 122°26'210.2
2014-Jul-16 18:33N 47°46' W 122°26'110.4
2014-Jul-16 18:28N 47°45' W 122°26'910.1
2014-Jul-16 17:34N 47°36' W 122°26'1 9.9
2014-Jul-16 17:28N 47°35' W 122°26'9 9.7
2014-Jul-16 16:34N 47°26' W 122°23'5 7.7
2014-Jul-16 15:52N 47°21' W 122°24'3 9.5
2014-Jul-16 15:34N 47°19' W 122°27'4 3.9
2014-Jul-16 14:33N 47°16' W 122°23'0 0.0
2014-Jul-16 13:34N 47°16' W 122°23'0 0.0
2014-Jul-16 12:33N 47°16' W 122°23'0 0.0
2014-Jul-16 11:33N 47°16' W 122°23'0 0.0
2014-Jul-16 10:33N 47°16' W 122°23'0 0.0
2014-Jul-16 09:34N 47°16' W 122°23'0 0.0
2014-Jul-16 08:33N 47°16' W 122°23'0 0.0
2014-Jul-16 07:33N 47°16' W 122°23'0 0.0
2014-Jul-16 06:33N 47°16' W 122°23'0 0.0
2014-Jul-16 05:32N 47°16' W 122°23'2 2.3
2014-Jul-16 04:33N 47°17' W 122°26'5 4.9
2014-Jul-16 03:34N 47°22' W 122°24'6 6.8
2014-Jul-16 02:40N 47°28' W 122°25'1 7.9
2014-Jul-16 02:34N 47°29' W 122°26'5 8.2
2014-Jul-16 01:56N 47°34' W 122°27'3 8.6
2014-Jul-16 01:33N 47°37' W 122°28'0 7.5
2014-Jul-16 01:31N 47°37' W 122°28'8 8.2
2014-Jul-16 00:33N 47°45' W 122°27'0 7.3
2014-Jul-16 00:31N 47°45' W 122°27'8 8.6
2014-Jul-15 23:33N 47°54' W 122°30'18 8.9
2014-Jul-15 21:29N 48°09' W 122°44'8 7.2
2014-Jul-15 20:24N 48°16' W 122°48'8 9.4
2014-Jul-15 19:33N 48°24' W 122°45'9 9.1
2014-Jul-15 18:33N 48°31' W 122°37'2 2.3
2014-Jul-15 17:33N 48°30' W 122°34'0 0.0
2014-Jul-15 16:33N 48°30' W 122°34'0 0.0
2014-Jul-15 15:33N 48°30' W 122°34'0 0.0
2014-Jul-15 14:33N 48°30' W 122°34'0 0.0
2014-Jul-15 13:33N 48°30' W 122°34'0 0.0
2014-Jul-15 12:33N 48°30' W 122°34'0 0.0
2014-Jul-15 11:33N 48°30' W 122°34'0 0.0
2014-Jul-15 10:33N 48°30' W 122°34'0 0.0
2014-Jul-15 09:33N 48°30' W 122°34'0 0.0
2014-Jul-15 08:33N 48°30' W 122°34'0 0.0
2014-Jul-15 07:33N 48°30' W 122°34'0 0.0
2014-Jul-15 06:33N 48°30' W 122°34'0 0.0
2014-Jul-15 05:33N 48°30' W 122°34'0 0.3
2014-Jul-15 04:33N 48°31' W 122°35'6 5.7
2014-Jul-15 03:33N 48°30' W 122°43'1010.2
2014-Jul-15 02:33N 48°20' W 122°45'8 7.5
2014-Jul-15 01:28N 48°12' W 122°45'5 4.9
2014-Jul-15 00:32N 48°08' W 122°41'9 4.1
2014-Jul-14 22:26N 48°00' W 122°36'  
Track history (hours):
 
Tides and Currents Weather Stations Pressure Air Temp Water Temp Dewpoint Dewpoint Depression Visibility Wind Speed Wind Dir Waves Ship Positions

Eagle

More information available from US FCC via Universal Licensing System and Coast Guard Vessel Documentation Center.

Last reported at 2014-Jul-24 22:20 UTC. Time now 2014-Jul-24 22:59 UTC.
Position N 47°15' W 122°23'.

Length 32 m; draft 4 m.

Type: Towing. MMSI: 366978690.

Date/timePositionNaut miles runAvg speedWind from/ knotsBaromVisibWave heightAir tempDewpointWater temp
2014-Jul-24 22:20N 47°15' W 122°23'0 0.0
2014-Jul-24 21:26N 47°15' W 122°23'0 0.0
2014-Jul-24 20:33N 47°15' W 122°23'0 0.0
2014-Jul-24 19:21N 47°15' W 122°23'0 0.0
2014-Jul-24 17:26N 47°15' W 122°23'0 0.0
2014-Jul-24 15:33N 47°15' W 122°23'0 0.0
2014-Jul-24 14:33N 47°15' W 122°23'0 0.4
2014-Jul-24 13:32N 47°16' W 122°23'0 0.0
2014-Jul-24 12:22N 47°16' W 122°23'0 0.0
2014-Jul-24 11:33N 47°16' W 122°23'0 0.0
2014-Jul-24 10:32N 47°16' W 122°23'0 0.0
2014-Jul-24 09:33N 47°16' W 122°23'0 0.0
2014-Jul-24 08:33N 47°16' W 122°23'0 0.0
2014-Jul-24 07:33N 47°16' W 122°23'0 0.0
2014-Jul-24 06:33N 47°16' W 122°23'0 0.0
2014-Jul-24 05:33N 47°16' W 122°23'0 0.0
2014-Jul-24 04:33N 47°16' W 122°23'0 0.0
2014-Jul-23 22:03N 47°16' W 122°23'0 0.0
2014-Jul-23 21:31N 47°16' W 122°23'0 0.0
2014-Jul-23 20:33N 47°16' W 122°23'0 0.0
2014-Jul-23 19:33N 47°16' W 122°23'0 0.3
2014-Jul-23 18:33N 47°16' W 122°23'1 1.1
2014-Jul-23 17:33N 47°16' W 122°25'0 0.0
2014-Jul-23 16:33N 47°16' W 122°25'0 0.0
2014-Jul-23 15:33N 47°16' W 122°25'0 0.0
2014-Jul-23 14:34N 47°16' W 122°25'0 0.1
2014-Jul-23 13:33N 47°16' W 122°25'1 1.0
2014-Jul-23 12:32N 47°16' W 122°24'1 0.5
2014-Jul-23 11:33N 47°16' W 122°23'0 0.0
2014-Jul-23 10:33N 47°16' W 122°23'0 0.0
2014-Jul-23 09:34N 47°16' W 122°23'0 0.0
2014-Jul-23 08:34N 47°16' W 122°23'0 0.0
2014-Jul-23 07:34N 47°16' W 122°23'0 0.0
2014-Jul-23 06:33N 47°16' W 122°23'0 0.0
2014-Jul-23 05:25N 47°16' W 122°23'0 0.0
2014-Jul-23 04:33N 47°16' W 122°23'3 2.8
2014-Jul-23 03:33N 47°17' W 122°27'0 0.1
2014-Jul-23 02:34N 47°17' W 122°27'0 0.0
2014-Jul-23 01:33N 47°17' W 122°27'0 0.1
2014-Jul-23 00:34N 47°17' W 122°27'0 0.1
2014-Jul-22 23:33N 47°17' W 122°27'0 0.1
2014-Jul-22 22:33N 47°17' W 122°27'2 1.6
2014-Jul-22 21:33N 47°18' W 122°28'4 6.5
2014-Jul-22 20:55N 47°22' W 122°25'2 7.0
2014-Jul-22 20:33N 47°23' W 122°22'2 7.4
2014-Jul-22 20:15N 47°25' W 122°24'5 7.5
2014-Jul-22 19:34N 47°30' W 122°26'1 7.3
2014-Jul-22 19:24N 47°31' W 122°27'6 7.7
2014-Jul-22 18:34N 47°37' W 122°28'0 7.3
2014-Jul-22 18:30N 47°38' W 122°28'7 7.5
2014-Jul-22 17:33N 47°45' W 122°26'1 7.1
2014-Jul-22 17:29N 47°45' W 122°26'2 2.3
2014-Jul-22 16:33N 47°47' W 122°24'0 0.0
2014-Jul-22 16:29N 47°47' W 122°24'0 0.0
2014-Jul-22 15:33N 47°47' W 122°24'0 0.0
2014-Jul-22 15:24N 47°47' W 122°24'0 0.0
2014-Jul-22 14:34N 47°47' W 122°24'0 0.0
2014-Jul-22 14:33N 47°47' W 122°24'0 0.0
2014-Jul-22 13:34N 47°47' W 122°24'0 0.0
2014-Jul-22 13:33N 47°47' W 122°24'0 0.0
2014-Jul-22 12:34N 47°47' W 122°24'0 0.0
2014-Jul-22 12:33N 47°47' W 122°24'0 0.0
2014-Jul-22 11:34N 47°47' W 122°24'0 0.0
2014-Jul-22 11:33N 47°47' W 122°24'0 0.0
2014-Jul-22 10:34N 47°47' W 122°24'0 0.3
2014-Jul-22 10:32N 47°47' W 122°24'0 0.0
2014-Jul-22 09:33N 47°47' W 122°24'0 0.2
2014-Jul-22 09:32N 47°47' W 122°24'0 0.0
2014-Jul-22 08:33N 47°47' W 122°24'0 0.2
2014-Jul-22 08:32N 47°47' W 122°24'0 0.0
2014-Jul-22 07:33N 47°47' W 122°24'0 0.0
2014-Jul-22 07:31N 47°47' W 122°24'0 0.0
2014-Jul-22 06:34N 47°47' W 122°24'0 0.0
2014-Jul-22 05:33N 47°47' W 122°24'0 0.0
2014-Jul-22 05:29N 47°47' W 122°24'0 0.0
2014-Jul-22 04:34N 47°47' W 122°24'0 0.0
2014-Jul-22 04:34N 47°47' W 122°24'0 0.0
2014-Jul-22 03:34N 47°47' W 122°24'0 0.0
2014-Jul-22 03:33N 47°47' W 122°24'0 0.0
2014-Jul-22 02:33N 47°47' W 122°24'0 0.0
2014-Jul-22 02:18N 47°47' W 122°24'0 0.2
2014-Jul-22 01:34N 47°47' W 122°24'0 2.2
2014-Jul-22 01:27N 47°47' W 122°24'5 5.5
2014-Jul-22 00:33N 47°52' W 122°26'0 6.8
2014-Jul-22 00:32N 47°52' W 122°27'6 6.6
2014-Jul-21 23:34N 47°57' W 122°33'22 6.9
2014-Jul-21 20:25N 48°16' W 122°48'1 7.3
2014-Jul-21 20:17N 48°17' W 122°48'5 7.3
2014-Jul-21 19:33N 48°22' W 122°46'6 6.3
2014-Jul-21 18:33N 48°28' W 122°44'5 4.6
2014-Jul-21 17:34N 48°31' W 122°39'3 3.1
2014-Jul-21 16:33N 48°30' W 122°34'0 0.0
2014-Jul-21 15:34N 48°30' W 122°34'0 0.0
2014-Jul-21 14:33N 48°30' W 122°34'0 0.0
2014-Jul-21 13:33N 48°30' W 122°34'0 0.0
2014-Jul-21 12:34N 48°30' W 122°34'0 0.0
2014-Jul-21 11:34N 48°30' W 122°34'0 0.0
2014-Jul-21 10:34N 48°30' W 122°34'0 0.0
2014-Jul-21 09:33N 48°30' W 122°34'0 0.0
2014-Jul-21 08:33N 48°30' W 122°34'0 0.0
2014-Jul-21 07:33N 48°30' W 122°34'0 0.0
2014-Jul-21 06:33N 48°30' W 122°34'0 0.0
2014-Jul-21 05:33N 48°30' W 122°34'0 0.0
2014-Jul-21 04:33N 48°30' W 122°34'0 0.0
2014-Jul-21 03:33N 48°30' W 122°34'0 0.0
2014-Jul-21 02:34N 48°30' W 122°34'0 0.0
2014-Jul-21 01:34N 48°30' W 122°34'0 0.0
2014-Jul-21 00:33N 48°30' W 122°34'0 0.0
2014-Jul-20 23:33N 48°30' W 122°34'0 0.0
2014-Jul-20 22:34N 48°30' W 122°34'0 0.0
2014-Jul-20 21:33N 48°30' W 122°34'0 0.0
2014-Jul-20 20:33N 48°30' W 122°34'0 0.2
2014-Jul-20 19:33N 48°31' W 122°34'6 6.4
2014-Jul-20 18:33N 48°29' W 122°44'9 9.1
2014-Jul-20 17:33N 48°20' W 122°45'14 6.6
2014-Jul-20 15:30N 48°07' W 122°39'8 8.7
2014-Jul-20 14:32N 47°59' W 122°35'8 8.6
2014-Jul-20 13:33N 47°52' W 122°28'4 9.2
2014-Jul-20 13:06N 47°48' W 122°26'5 9.4
2014-Jul-20 12:34N 47°43' W 122°26'0 8.7
2014-Jul-20 12:31N 47°42' W 122°26'9 9.5
2014-Jul-20 11:33N 47°33' W 122°26'0 8.7
2014-Jul-20 11:31N 47°33' W 122°26'9 9.5
2014-Jul-20 10:33N 47°24' W 122°21'8 7.7
2014-Jul-20 09:33N 47°18' W 122°27'3 3.0
2014-Jul-20 08:33N 47°16' W 122°23'0 0.0
2014-Jul-20 07:33N 47°16' W 122°23'0 0.0
2014-Jul-20 06:32N 47°16' W 122°23'0 0.0
2014-Jul-20 05:31N 47°16' W 122°23'0 0.0
2014-Jul-20 04:33N 47°16' W 122°23'0 0.0
2014-Jul-20 03:32N 47°16' W 122°23'0 0.0
2014-Jul-20 02:33N 47°16' W 122°23'4 4.3
2014-Jul-20 01:34N 47°19' W 122°28'7 6.9
2014-Jul-20 00:34N 47°25' W 122°24'4 8.0
2014-Jul-20 00:02N 47°29' W 122°26'4 8.1
2014-Jul-19 23:33N 47°33' W 122°27'1 7.8
2014-Jul-19 23:22N 47°34' W 122°28'7 8.1
2014-Jul-19 22:34N 47°41' W 122°28'0 7.1
2014-Jul-19 22:32N 47°41' W 122°28'6 6.6
2014-Jul-19 21:33N 47°47' W 122°24'0 1.6
2014-Jul-19 21:32N 47°47' W 122°24'0 0.2
2014-Jul-19 20:33N 47°47' W 122°24'0 0.0
2014-Jul-19 20:31N 47°47' W 122°24'0 0.0
2014-Jul-19 19:33N 47°47' W 122°24'0 0.0
2014-Jul-19 19:31N 47°47' W 122°24'0 0.0
2014-Jul-19 18:33N 47°47' W 122°24'0 0.0
2014-Jul-19 18:31N 47°47' W 122°24'0 0.0
2014-Jul-19 17:33N 47°47' W 122°24'0 0.0
2014-Jul-19 17:32N 47°47' W 122°24'0 0.0
2014-Jul-19 16:33N 47°47' W 122°24'0 0.0
2014-Jul-19 16:31N 47°47' W 122°24'0 0.0
2014-Jul-19 15:33N 47°47' W 122°24'0 0.0
2014-Jul-19 15:31N 47°47' W 122°24'0 0.0
2014-Jul-19 14:34N 47°47' W 122°24'0 0.0
2014-Jul-19 14:31N 47°47' W 122°24'0 0.1
2014-Jul-19 13:33N 47°47' W 122°24'0 0.2
2014-Jul-19 13:31N 47°47' W 122°24'0 0.0
2014-Jul-19 12:33N 47°47' W 122°24'0 0.0
2014-Jul-19 12:30N 47°47' W 122°24'0 0.0
2014-Jul-19 11:33N 47°47' W 122°24'0 0.0
2014-Jul-19 11:31N 47°47' W 122°24'0 0.0
2014-Jul-19 10:34N 47°47' W 122°24'0 0.0
2014-Jul-19 10:31N 47°47' W 122°24'0 0.0
2014-Jul-19 09:34N 47°47' W 122°24'0 0.0
2014-Jul-19 09:31N 47°47' W 122°24'0 0.0
2014-Jul-19 08:34N 47°47' W 122°24'0 0.0
2014-Jul-19 08:31N 47°47' W 122°24'0 0.0
2014-Jul-19 07:33N 47°47' W 122°24'0 0.0
2014-Jul-19 07:30N 47°47' W 122°24'0 0.0
2014-Jul-19 06:34N 47°47' W 122°24'0 0.0
2014-Jul-19 06:30N 47°47' W 122°24'0 0.0
2014-Jul-19 05:40N 47°47' W 122°24'0 0.0
2014-Jul-19 05:33N 47°47' W 122°24'0 0.0
2014-Jul-19 04:33N 47°47' W 122°24'0 0.1
2014-Jul-19 04:30N 47°47' W 122°24'0 0.0
2014-Jul-19 03:34N 47°47' W 122°24'0 0.0
2014-Jul-19 03:30N 47°47' W 122°24'0 0.0
2014-Jul-19 02:33N 47°47' W 122°24'0 0.0
2014-Jul-19 02:30N 47°47' W 122°24'0 0.0
2014-Jul-19 01:33N 47°47' W 122°24'0 0.0
2014-Jul-19 01:30N 47°47' W 122°24'0 0.0
2014-Jul-19 00:33N 47°47' W 122°24'0 0.0
2014-Jul-19 00:30N 47°47' W 122°24'0 0.0
2014-Jul-18 23:33N 47°47' W 122°24'0 0.0
2014-Jul-18 23:30N 47°47' W 122°24'0 0.0
2014-Jul-18 22:34N 47°47' W 122°24'0 0.0
2014-Jul-18 22:20N 47°47' W 122°24'0 0.0
2014-Jul-18 21:33N 47°47' W 122°24'0 0.0
2014-Jul-18 21:29N 47°47' W 122°24'0 0.0
2014-Jul-18 20:33N 47°47' W 122°24'0 0.0
2014-Jul-18 20:17N 47°47' W 122°24'1 0.9
2014-Jul-18 19:33N 47°47' W 122°24'0 0.3
2014-Jul-18 19:32N 47°47' W 122°24'6 6.2
2014-Jul-18 18:33N 47°53' W 122°28'1 6.7
2014-Jul-18 18:23N 47°54' W 122°28'6 7.3
2014-Jul-18 17:32N 47°58' W 122°36'10 7.5
2014-Jul-18 16:11N 48°07' W 122°42'6 9.4
2014-Jul-18 15:33N 48°11' W 122°48'8 7.6
2014-Jul-18 14:33N 48°19' W 122°47'8 7.8
2014-Jul-18 13:33N 48°27' W 122°45'7 6.6
2014-Jul-18 12:33N 48°31' W 122°38'3 2.7
2014-Jul-18 11:33N 48°30' W 122°34'0 0.0
2014-Jul-18 10:34N 48°30' W 122°34'0 0.0
2014-Jul-18 09:33N 48°30' W 122°34'0 0.0
2014-Jul-18 08:33N 48°30' W 122°34'0 0.0
2014-Jul-18 07:34N 48°30' W 122°34'0 0.0
2014-Jul-18 06:33N 48°30' W 122°34'0 0.0
2014-Jul-18 05:33N 48°30' W 122°34'0 0.0
2014-Jul-18 04:33N 48°30' W 122°34'0 0.0
2014-Jul-18 03:33N 48°30' W 122°34'0 0.0
2014-Jul-18 02:33N 48°30' W 122°34'0 0.0
2014-Jul-18 01:33N 48°30' W 122°34'0 0.0
2014-Jul-18 00:33N 48°30' W 122°34'0 0.0
2014-Jul-17 23:33N 48°30' W 122°34'0 0.0
2014-Jul-17 22:33N 48°30' W 122°34'0 0.0
2014-Jul-17 21:33N 48°30' W 122°34'0 0.0
2014-Jul-17 20:33N 48°30' W 122°34'0 0.0
2014-Jul-17 19:34N 48°30' W 122°34'0 0.0
2014-Jul-17 18:33N 48°30' W 122°34'0 0.0
2014-Jul-17 17:33N 48°30' W 122°34'0 0.0
2014-Jul-17 16:33N 48°30' W 122°34'0 0.0
2014-Jul-17 15:34N 48°30' W 122°34'0 0.0
2014-Jul-17 14:33N 48°30' W 122°34'0 0.0
2014-Jul-17 13:33N 48°30' W 122°34'0 0.0
2014-Jul-17 12:34N 48°30' W 122°34'0 0.0
2014-Jul-17 11:33N 48°30' W 122°34'0 0.0
2014-Jul-17 10:34N 48°30' W 122°34'0 0.0
2014-Jul-17 09:34N 48°30' W 122°34'0 0.0
2014-Jul-17 08:33N 48°30' W 122°34'0 0.0
2014-Jul-17 07:33N 48°30' W 122°34'0 0.0
2014-Jul-17 06:34N 48°30' W 122°34'0 0.0
2014-Jul-17 05:33N 48°30' W 122°34'0 0.0
2014-Jul-17 04:33N 48°30' W 122°34'0 0.0
2014-Jul-17 03:33N 48°30' W 122°34'0 0.0
2014-Jul-17 02:33N 48°30' W 122°34'0 0.0
2014-Jul-17 01:34N 48°30' W 122°34'1 0.7
2014-Jul-17 00:33N 48°31' W 122°35'6 5.6
2014-Jul-16 23:33N 48°30' W 122°43'8 8.3
2014-Jul-16 22:33N 48°22' W 122°45'10 8.3
2014-Jul-16 21:22N 48°12' W 122°47'1011.0
2014-Jul-16 20:25N 48°04' W 122°38'1011.5
2014-Jul-16 19:33N 47°56' W 122°29'910.3
2014-Jul-16 18:43N 47°47' W 122°26'210.2
2014-Jul-16 18:33N 47°46' W 122°26'110.4
2014-Jul-16 18:28N 47°45' W 122°26'910.1
2014-Jul-16 17:34N 47°36' W 122°26'1 9.9
2014-Jul-16 17:28N 47°35' W 122°26'9 9.7
2014-Jul-16 16:34N 47°26' W 122°23'5 7.7
2014-Jul-16 15:52N 47°21' W 122°24'3 9.5
2014-Jul-16 15:34N 47°19' W 122°27'4 3.9
2014-Jul-16 14:33N 47°16' W 122°23'0 0.0
2014-Jul-16 13:34N 47°16' W 122°23'0 0.0
2014-Jul-16 12:33N 47°16' W 122°23'0 0.0
2014-Jul-16 11:33N 47°16' W 122°23'0 0.0
2014-Jul-16 10:33N 47°16' W 122°23'0 0.0
2014-Jul-16 09:34N 47°16' W 122°23'0 0.0
2014-Jul-16 08:33N 47°16' W 122°23'0 0.0
2014-Jul-16 07:33N 47°16' W 122°23'0 0.0
2014-Jul-16 06:33N 47°16' W 122°23'0 0.0
2014-Jul-16 05:32N 47°16' W 122°23'2 2.3
2014-Jul-16 04:33N 47°17' W 122°26'5 4.9
2014-Jul-16 03:34N 47°22' W 122°24'6 6.8
2014-Jul-16 02:40N 47°28' W 122°25'1 7.9
2014-Jul-16 02:34N 47°29' W 122°26'5 8.2
2014-Jul-16 01:56N 47°34' W 122°27'3 8.6
2014-Jul-16 01:33N 47°37' W 122°28'0 7.5
2014-Jul-16 01:31N 47°37' W 122°28'8 8.2
2014-Jul-16 00:33N 47°45' W 122°27'0 7.3
2014-Jul-16 00:31N 47°45' W 122°27'8 8.6
2014-Jul-15 23:33N 47°54' W 122°30'18 8.9
2014-Jul-15 21:29N 48°09' W 122°44'8 7.2
2014-Jul-15 20:24N 48°16' W 122°48'8 9.4
2014-Jul-15 19:33N 48°24' W 122°45'9 9.1
2014-Jul-15 18:33N 48°31' W 122°37'2 2.3
2014-Jul-15 17:33N 48°30' W 122°34'0 0.0
2014-Jul-15 16:33N 48°30' W 122°34'0 0.0
2014-Jul-15 15:33N 48°30' W 122°34'0 0.0
2014-Jul-15 14:33N 48°30' W 122°34'0 0.0
2014-Jul-15 13:33N 48°30' W 122°34'0 0.0
2014-Jul-15 12:33N 48°30' W 122°34'0 0.0
2014-Jul-15 11:33N 48°30' W 122°34'0 0.0
2014-Jul-15 10:33N 48°30' W 122°34'0 0.0
2014-Jul-15 09:33N 48°30' W 122°34'0 0.0
2014-Jul-15 08:33N 48°30' W 122°34'0 0.0
2014-Jul-15 07:33N 48°30' W 122°34'0 0.0
2014-Jul-15 06:33N 48°30' W 122°34'0 0.0
2014-Jul-15 05:33N 48°30' W 122°34'0 0.3
2014-Jul-15 04:33N 48°31' W 122°35'6 5.7
2014-Jul-15 03:33N 48°30' W 122°43'1010.2
2014-Jul-15 02:33N 48°20' W 122°45'8 7.5
2014-Jul-15 01:28N 48°12' W 122°45'5 4.9
2014-Jul-15 00:32N 48°08' W 122°41'9 4.1
2014-Jul-14 22:26N 48°00' W 122°36'  

Dump ship's entire track history